NOZ8LN ENZV-LDSP
Flight info
| Callsign | NOZ8LN |
|---|---|
| Flight time | 2h 28m |
| Altitude | 35000 |
| Route | BIVKI DCT ALASA DCT MAREM DCT BUDEX DCT NUPSO |
| Aircraft | B38M/M-SDE2E3GHIJ1LRWXY/LB2 |
Departure
| Time | 2026-04-15 13:09 |
|---|---|
| Airport | Stavanger Airport, Sola (ENZV) |
Arrival
| Time | 2026-04-15 15:38 |
|---|---|
| Airport | Split Saint Jerome Airport (LDSP) |
| Time | Latitude | Longitude | Altitude | Speed | Heading |
|---|---|---|---|---|---|
| 2026-04-15 12:41 | 58.88125 | 5.63026 | 31 ft | 0 kts | 312° |
| 2026-04-15 12:59 | 58.88118 | 5.63041 | 31 ft | 4 kts | 313° |
| 2026-04-15 12:59 | 58.88099 | 5.63078 | 31 ft | 4 kts | 314° |
| 2026-04-15 12:59 | 58.88082 | 5.63113 | 31 ft | 3 kts | 313° |
| 2026-04-15 13:00 | 58.88063 | 5.63138 | 31 ft | 4 kts | 0° |
| 2026-04-15 13:00 | 58.88042 | 5.63119 | 31 ft | 4 kts | 43° |
| 2026-04-15 13:00 | 58.88034 | 5.63105 | 31 ft | 1 kts | 44° |
| 2026-04-15 13:00 | 58.88034 | 5.63104 | 31 ft | 0 kts | 44° |
| 2026-04-15 13:03 | 58.88039 | 5.63114 | 31 ft | 4 kts | 43° |
| 2026-04-15 13:04 | 58.88096 | 5.63211 | 31 ft | 18 kts | 42° |
| 2026-04-15 13:04 | 58.88215 | 5.63299 | 31 ft | 15 kts | 357° |
| 2026-04-15 13:04 | 58.88279 | 5.63354 | 31 ft | 11 kts | 70° |
| 2026-04-15 13:04 | 58.88343 | 5.63425 | 31 ft | 12 kts | 358° |
| 2026-04-15 13:05 | 58.88432 | 5.63421 | 31 ft | 14 kts | 359° |
| 2026-04-15 13:05 | 58.88535 | 5.63417 | 31 ft | 16 kts | 359° |
| 2026-04-15 13:05 | 58.88556 | 5.63416 | 31 ft | 1 kts | 359° |
| 2026-04-15 13:05 | 58.88597 | 5.63414 | 31 ft | 12 kts | 359° |
| 2026-04-15 13:06 | 58.88725 | 5.63413 | 31 ft | 25 kts | 360° |
| 2026-04-15 13:06 | 58.88909 | 5.63407 | 27 ft | 22 kts | 359° |
| 2026-04-15 13:06 | 58.89064 | 5.63403 | 25 ft | 23 kts | 358° |
| 2026-04-15 13:06 | 58.89216 | 5.63398 | 22 ft | 20 kts | 360° |
| 2026-04-15 13:07 | 58.89319 | 5.63412 | 24 ft | 12 kts | 34° |
| 2026-04-15 13:07 | 58.89343 | 5.63552 | 24 ft | 11 kts | 91° |
| 2026-04-15 13:07 | 58.89331 | 5.63698 | 25 ft | 12 kts | 128° |
| 2026-04-15 13:07 | 58.89279 | 5.63730 | 26 ft | 0 kts | 179° |
| 2026-04-15 13:08 | 58.89277 | 5.63730 | 26 ft | 2 kts | 179° |
| 2026-04-15 13:08 | 58.89009 | 5.63739 | 29 ft | 77 kts | 178° |
| 2026-04-15 13:08 | 58.88232 | 5.63766 | 39 ft | 144 kts | 179° |
| 2026-04-15 13:09 | 58.87099 | 5.63804 | 368 ft | 171 kts | 179° |
| 2026-04-15 13:09 | 58.85886 | 5.63829 | 1121 ft | 173 kts | 179° |
| 2026-04-15 13:09 | 58.84690 | 5.63870 | 1941 ft | 178 kts | 179° |
| 2026-04-15 13:09 | 58.83361 | 5.63914 | 2347 ft | 204 kts | 179° |
| 2026-04-15 13:10 | 58.82390 | 5.63946 | 2681 ft | 218 kts | 179° |
| 2026-04-15 13:10 | 58.80232 | 5.64016 | 3450 ft | 244 kts | 179° |
| 2026-04-15 13:10 | 58.78476 | 5.64073 | 4108 ft | 259 kts | 179° |
| 2026-04-15 13:10 | 58.76674 | 5.64131 | 5068 ft | 260 kts | 179° |
| 2026-04-15 13:11 | 58.75469 | 5.64169 | 5659 ft | 263 kts | 179° |
| 2026-04-15 13:11 | 58.73635 | 5.64225 | 6544 ft | 266 kts | 179° |
| 2026-04-15 13:11 | 58.71778 | 5.64281 | 7414 ft | 269 kts | 179° |
| 2026-04-15 13:11 | 58.69886 | 5.64366 | 8272 ft | 273 kts | 175° |
| 2026-04-15 13:12 | 58.67557 | 5.66085 | 9361 ft | 276 kts | 147° |
| 2026-04-15 13:12 | 58.66455 | 5.67426 | 9859 ft | 280 kts | 148° |
| 2026-04-15 13:12 | 58.64790 | 5.69456 | 10502 ft | 291 kts | 147° |
| 2026-04-15 13:12 | 58.63030 | 5.71626 | 10855 ft | 310 kts | 147° |
| 2026-04-15 13:13 | 58.61178 | 5.73927 | 11320 ft | 323 kts | 147° |
| 2026-04-15 13:13 | 58.59275 | 5.76300 | 12008 ft | 327 kts | 147° |
| 2026-04-15 13:13 | 58.57360 | 5.78692 | 12713 ft | 331 kts | 147° |
| 2026-04-15 13:13 | 58.55419 | 5.81114 | 13401 ft | 334 kts | 147° |
| 2026-04-15 13:14 | 58.53490 | 5.83520 | 14048 ft | 337 kts | 147° |
| 2026-04-15 13:14 | 58.51486 | 5.86017 | 14699 ft | 340 kts | 147° |
| 2026-04-15 13:14 | 58.49492 | 5.88499 | 15321 ft | 343 kts | 147° |
| 2026-04-15 13:14 | 58.47511 | 5.90960 | 15894 ft | 346 kts | 147° |
| 2026-04-15 13:15 | 58.45484 | 5.93476 | 16482 ft | 349 kts | 147° |
| 2026-04-15 13:15 | 58.43415 | 5.96039 | 17040 ft | 352 kts | 147° |
| 2026-04-15 13:15 | 58.41378 | 5.98560 | 17572 ft | 355 kts | 147° |
| 2026-04-15 13:15 | 58.39292 | 6.01137 | 18103 ft | 357 kts | 147° |
| 2026-04-15 13:16 | 58.37203 | 6.03715 | 18599 ft | 360 kts | 147° |
| 2026-04-15 13:16 | 58.35092 | 6.06317 | 19089 ft | 363 kts | 147° |
| 2026-04-15 13:16 | 58.32964 | 6.08934 | 19565 ft | 365 kts | 147° |
| 2026-04-15 13:16 | 58.30812 | 6.11579 | 20033 ft | 368 kts | 147° |
| 2026-04-15 13:17 | 58.28655 | 6.14224 | 20475 ft | 371 kts | 147° |
| 2026-04-15 13:17 | 58.26481 | 6.16886 | 20927 ft | 373 kts | 147° |
| 2026-04-15 13:17 | 58.24299 | 6.19555 | 21367 ft | 375 kts | 147° |
| 2026-04-15 13:17 | 58.22092 | 6.22251 | 21804 ft | 378 kts | 147° |
| 2026-04-15 13:18 | 58.19874 | 6.24956 | 22239 ft | 380 kts | 147° |
| 2026-04-15 13:18 | 58.17641 | 6.27675 | 22685 ft | 383 kts | 147° |
| 2026-04-15 13:18 | 58.15381 | 6.30423 | 23106 ft | 385 kts | 147° |
| 2026-04-15 13:18 | 58.13119 | 6.33168 | 23531 ft | 388 kts | 147° |
| 2026-04-15 13:19 | 58.10839 | 6.35931 | 23955 ft | 390 kts | 147° |
| 2026-04-15 13:19 | 58.08546 | 6.38706 | 24381 ft | 393 kts | 147° |
| 2026-04-15 13:19 | 58.06269 | 6.41458 | 24791 ft | 395 kts | 147° |
| 2026-04-15 13:19 | 58.03945 | 6.44261 | 25198 ft | 398 kts | 147° |
| 2026-04-15 13:20 | 58.01604 | 6.47081 | 25598 ft | 400 kts | 147° |
| 2026-04-15 13:20 | 57.99260 | 6.49901 | 25989 ft | 402 kts | 147° |
| 2026-04-15 13:20 | 57.96893 | 6.52742 | 26375 ft | 405 kts | 147° |
| 2026-04-15 13:20 | 57.94511 | 6.55598 | 26747 ft | 407 kts | 147° |
| 2026-04-15 13:21 | 57.92115 | 6.58466 | 27109 ft | 409 kts | 147° |
| 2026-04-15 13:21 | 57.89705 | 6.61346 | 27453 ft | 412 kts | 147° |
| 2026-04-15 13:21 | 57.87281 | 6.64237 | 27809 ft | 414 kts | 147° |
| 2026-04-15 13:21 | 57.84844 | 6.67140 | 28145 ft | 416 kts | 147° |
| 2026-04-15 13:22 | 57.82394 | 6.70054 | 28478 ft | 418 kts | 147° |
| 2026-04-15 13:22 | 57.79931 | 6.72978 | 28804 ft | 420 kts | 148° |
| 2026-04-15 13:22 | 57.77454 | 6.75913 | 29117 ft | 422 kts | 148° |
| 2026-04-15 13:22 | 57.74972 | 6.78851 | 29426 ft | 424 kts | 148° |
| 2026-04-15 13:23 | 57.72465 | 6.81812 | 29725 ft | 426 kts | 148° |
| 2026-04-15 13:23 | 57.69952 | 6.84776 | 30035 ft | 428 kts | 148° |
| 2026-04-15 13:23 | 57.67427 | 6.87749 | 30308 ft | 430 kts | 148° |
| 2026-04-15 13:23 | 57.64890 | 6.90731 | 30592 ft | 432 kts | 148° |
| 2026-04-15 13:24 | 57.62342 | 6.93721 | 30875 ft | 433 kts | 148° |
| 2026-04-15 13:24 | 57.59817 | 6.96680 | 31137 ft | 435 kts | 148° |
| 2026-04-15 13:24 | 57.57245 | 6.99688 | 31409 ft | 437 kts | 148° |
| 2026-04-15 13:24 | 57.54663 | 7.02703 | 31672 ft | 439 kts | 148° |
| 2026-04-15 13:25 | 57.52069 | 7.05726 | 31930 ft | 441 kts | 148° |
| 2026-04-15 13:25 | 57.49457 | 7.08765 | 32198 ft | 442 kts | 148° |
| 2026-04-15 13:25 | 57.46858 | 7.11785 | 32523 ft | 442 kts | 148° |
| 2026-04-15 13:25 | 57.44246 | 7.14813 | 32862 ft | 441 kts | 148° |
| 2026-04-15 13:26 | 57.41639 | 7.17832 | 33119 ft | 442 kts | 148° |
| 2026-04-15 13:26 | 57.39031 | 7.20846 | 33403 ft | 442 kts | 148° |
| 2026-04-15 13:26 | 57.36422 | 7.23856 | 33727 ft | 441 kts | 148° |
| 2026-04-15 13:26 | 57.33817 | 7.26857 | 34029 ft | 441 kts | 148° |
| 2026-04-15 13:27 | 57.31214 | 7.29850 | 34341 ft | 440 kts | 148° |
| 2026-04-15 13:27 | 57.28615 | 7.32834 | 34633 ft | 439 kts | 148° |
| 2026-04-15 13:27 | 57.26018 | 7.35810 | 34907 ft | 439 kts | 148° |
| 2026-04-15 13:27 | 57.23422 | 7.38780 | 35171 ft | 439 kts | 148° |
| 2026-04-15 13:28 | 57.20827 | 7.41743 | 35429 ft | 438 kts | 148° |
| 2026-04-15 13:28 | 57.18237 | 7.44697 | 35680 ft | 438 kts | 148° |
| 2026-04-15 13:28 | 57.15647 | 7.47645 | 35922 ft | 437 kts | 148° |
| 2026-04-15 13:28 | 57.13057 | 7.50589 | 36157 ft | 437 kts | 148° |
| 2026-04-15 13:29 | 57.10470 | 7.53524 | 36377 ft | 437 kts | 148° |
| 2026-04-15 13:29 | 57.07883 | 7.56454 | 36587 ft | 436 kts | 148° |
| 2026-04-15 13:29 | 57.05298 | 7.59376 | 36790 ft | 436 kts | 148° |
| 2026-04-15 13:29 | 57.02715 | 7.62293 | 36965 ft | 436 kts | 148° |
| 2026-04-15 13:30 | 56.97533 | 7.68128 | 36998 ft | 435 kts | 148° |
| 2026-04-15 13:30 | 56.92404 | 7.73886 | 37002 ft | 435 kts | 148° |
| 2026-04-15 13:31 | 56.87236 | 7.79668 | 37000 ft | 435 kts | 148° |
| 2026-04-15 13:31 | 56.82068 | 7.85431 | 37000 ft | 435 kts | 148° |
| 2026-04-15 13:32 | 56.76898 | 7.91177 | 37000 ft | 435 kts | 148° |
| 2026-04-15 13:32 | 56.71725 | 7.96908 | 37000 ft | 435 kts | 148° |
| 2026-04-15 13:33 | 56.66547 | 8.02625 | 37000 ft | 435 kts | 149° |
| 2026-04-15 13:33 | 56.61364 | 8.08330 | 37000 ft | 435 kts | 149° |
| 2026-04-15 13:34 | 56.56181 | 8.14016 | 37000 ft | 435 kts | 149° |
| 2026-04-15 13:34 | 56.50997 | 8.19685 | 37000 ft | 435 kts | 149° |
| 2026-04-15 13:35 | 56.45805 | 8.25344 | 37000 ft | 435 kts | 149° |
| 2026-04-15 13:35 | 56.40613 | 8.30985 | 37000 ft | 435 kts | 149° |
| 2026-04-15 13:36 | 56.35417 | 8.36612 | 37000 ft | 435 kts | 149° |
| 2026-04-15 13:36 | 56.30219 | 8.42224 | 37000 ft | 435 kts | 149° |
| 2026-04-15 13:37 | 56.25019 | 8.47819 | 37000 ft | 436 kts | 149° |
| 2026-04-15 13:37 | 56.19810 | 8.53406 | 37000 ft | 436 kts | 149° |
| 2026-04-15 13:38 | 56.14606 | 8.58970 | 37000 ft | 436 kts | 149° |
| 2026-04-15 13:38 | 56.09429 | 8.64488 | 37000 ft | 436 kts | 149° |
| 2026-04-15 13:39 | 56.04219 | 8.70023 | 37000 ft | 436 kts | 149° |
| 2026-04-15 13:39 | 55.98970 | 8.75582 | 37000 ft | 435 kts | 149° |
| 2026-04-15 13:40 | 55.93791 | 8.81049 | 37000 ft | 435 kts | 149° |
| 2026-04-15 13:40 | 55.88575 | 8.86539 | 37000 ft | 435 kts | 149° |
| 2026-04-15 13:41 | 55.83350 | 8.92020 | 37000 ft | 436 kts | 149° |
| 2026-04-15 13:41 | 55.78125 | 8.97484 | 37000 ft | 436 kts | 149° |
| 2026-04-15 13:42 | 55.72900 | 9.02931 | 37000 ft | 436 kts | 149° |
| 2026-04-15 13:42 | 55.67670 | 9.08367 | 37000 ft | 436 kts | 149° |
| 2026-04-15 13:43 | 55.62437 | 9.13787 | 37000 ft | 436 kts | 149° |
| 2026-04-15 13:43 | 55.57201 | 9.19195 | 37000 ft | 436 kts | 149° |
| 2026-04-15 13:44 | 55.51962 | 9.24588 | 37000 ft | 436 kts | 149° |
| 2026-04-15 13:44 | 55.46719 | 9.29969 | 37000 ft | 436 kts | 150° |
| 2026-04-15 13:45 | 55.41480 | 9.35329 | 37000 ft | 436 kts | 150° |
| 2026-04-15 13:47 | 55.20524 | 9.56605 | 37000 ft | 435 kts | 150° |
| 2026-04-15 13:47 | 55.15272 | 9.61899 | 37000 ft | 435 kts | 150° |
| 2026-04-15 13:48 | 55.10023 | 9.67175 | 37000 ft | 435 kts | 150° |
| 2026-04-15 13:48 | 55.04770 | 9.72439 | 37000 ft | 435 kts | 150° |
| 2026-04-15 13:49 | 54.99518 | 9.77686 | 37000 ft | 435 kts | 150° |
| 2026-04-15 13:49 | 54.94260 | 9.82923 | 37000 ft | 435 kts | 150° |
| 2026-04-15 13:50 | 54.88998 | 9.88149 | 37000 ft | 435 kts | 150° |
| 2026-04-15 13:50 | 54.86380 | 9.90744 | 37764 ft | 436 kts | 151° |
| 2026-04-15 13:50 | 54.83711 | 9.93385 | 37392 ft | 448 kts | 153° |
| 2026-04-15 13:51 | 54.80977 | 9.96087 | 37176 ft | 457 kts | 153° |
| 2026-04-15 13:51 | 54.78207 | 9.98841 | 37228 ft | 460 kts | 152° |
| 2026-04-15 13:51 | 54.72648 | 10.04376 | 37217 ft | 469 kts | 152° |
| 2026-04-15 13:52 | 54.66904 | 10.10079 | 37216 ft | 478 kts | 152° |
| 2026-04-15 13:52 | 54.61074 | 10.15848 | 37216 ft | 488 kts | 152° |
| 2026-04-15 13:53 | 54.55156 | 10.21685 | 37201 ft | 495 kts | 152° |
| 2026-04-15 13:53 | 54.49179 | 10.27560 | 37212 ft | 494 kts | 153° |
| 2026-04-15 13:54 | 54.43204 | 10.33413 | 37223 ft | 494 kts | 153° |
| 2026-04-15 13:54 | 54.37234 | 10.39242 | 37219 ft | 494 kts | 153° |
| 2026-04-15 13:55 | 54.31255 | 10.45060 | 37216 ft | 494 kts | 153° |
| 2026-04-15 13:55 | 54.25273 | 10.50861 | 37204 ft | 493 kts | 153° |
| 2026-04-15 13:56 | 54.19295 | 10.56638 | 37215 ft | 492 kts | 153° |
| 2026-04-15 13:56 | 54.13378 | 10.62338 | 37219 ft | 492 kts | 153° |
| 2026-04-15 13:57 | 54.07392 | 10.68085 | 37210 ft | 495 kts | 153° |
| 2026-04-15 13:57 | 54.01378 | 10.73840 | 37192 ft | 495 kts | 153° |
| 2026-04-15 13:58 | 53.95382 | 10.79558 | 37205 ft | 494 kts | 153° |
| 2026-04-15 13:58 | 53.90390 | 10.84304 | 37209 ft | 494 kts | 153° |
| 2026-04-15 13:59 | 53.84389 | 10.89992 | 37205 ft | 494 kts | 153° |
| 2026-04-15 13:59 | 53.78377 | 10.95672 | 37222 ft | 494 kts | 153° |
| 2026-04-15 14:00 | 53.72370 | 11.01329 | 37208 ft | 494 kts | 153° |
| 2026-04-15 14:00 | 53.66338 | 11.06990 | 37206 ft | 497 kts | 153° |
| 2026-04-15 14:01 | 53.57283 | 11.15452 | 37218 ft | 496 kts | 153° |
| 2026-04-15 14:02 | 53.51242 | 11.21075 | 37220 ft | 496 kts | 153° |
| 2026-04-15 14:02 | 53.45203 | 11.26679 | 37191 ft | 496 kts | 153° |
| 2026-04-15 14:03 | 53.39160 | 11.32267 | 37224 ft | 495 kts | 153° |
| 2026-04-15 14:03 | 53.33135 | 11.37820 | 37237 ft | 495 kts | 152° |
| 2026-04-15 14:04 | 53.27083 | 11.43379 | 37225 ft | 497 kts | 152° |
| 2026-04-15 14:04 | 53.21023 | 11.48928 | 37208 ft | 497 kts | 153° |
| 2026-04-15 14:05 | 53.14962 | 11.54462 | 37223 ft | 496 kts | 153° |
| 2026-04-15 14:05 | 53.08944 | 11.59936 | 37228 ft | 496 kts | 153° |
| 2026-04-15 14:06 | 53.02894 | 11.65423 | 37230 ft | 496 kts | 153° |
| 2026-04-15 14:06 | 52.96836 | 11.70899 | 37232 ft | 496 kts | 153° |
| 2026-04-15 14:07 | 52.90764 | 11.76370 | 37235 ft | 497 kts | 152° |
| 2026-04-15 14:07 | 52.84688 | 11.81827 | 37231 ft | 497 kts | 152° |
| 2026-04-15 14:08 | 52.78601 | 11.87277 | 37228 ft | 497 kts | 152° |
| 2026-04-15 14:08 | 52.72505 | 11.92716 | 37230 ft | 497 kts | 153° |
| 2026-04-15 14:09 | 52.66422 | 11.98127 | 37236 ft | 497 kts | 153° |
| 2026-04-15 14:09 | 52.60331 | 12.03529 | 37228 ft | 496 kts | 153° |
| 2026-04-15 14:10 | 52.54247 | 12.08908 | 37238 ft | 497 kts | 152° |
| 2026-04-15 14:10 | 52.48148 | 12.14280 | 37234 ft | 498 kts | 152° |
| 2026-04-15 14:11 | 52.42045 | 12.19640 | 37236 ft | 498 kts | 152° |
| 2026-04-15 14:11 | 52.35938 | 12.24987 | 37216 ft | 497 kts | 152° |
| 2026-04-15 14:12 | 52.29837 | 12.30312 | 37230 ft | 497 kts | 152° |
| 2026-04-15 14:12 | 52.23734 | 12.35621 | 37234 ft | 497 kts | 152° |
| 2026-04-15 14:13 | 52.17629 | 12.40916 | 37256 ft | 497 kts | 152° |
| 2026-04-15 14:13 | 52.11560 | 12.46163 | 37235 ft | 497 kts | 152° |
| 2026-04-15 14:14 | 52.05451 | 12.51429 | 37235 ft | 497 kts | 152° |
| 2026-04-15 14:14 | 51.99336 | 12.56683 | 37235 ft | 497 kts | 152° |
| 2026-04-15 14:15 | 51.93226 | 12.61916 | 37241 ft | 497 kts | 152° |
| 2026-04-15 14:15 | 51.87105 | 12.67143 | 37240 ft | 497 kts | 152° |
| 2026-04-15 14:16 | 51.80986 | 12.72353 | 37232 ft | 497 kts | 152° |
| 2026-04-15 14:16 | 51.74874 | 12.77539 | 37230 ft | 495 kts | 152° |
| 2026-04-15 14:17 | 51.68775 | 12.82699 | 37241 ft | 496 kts | 152° |
| 2026-04-15 14:17 | 51.62659 | 12.87857 | 37239 ft | 496 kts | 152° |
| 2026-04-15 14:18 | 51.56549 | 12.92995 | 37223 ft | 496 kts | 152° |
| 2026-04-15 14:18 | 51.50440 | 12.98116 | 37243 ft | 496 kts | 152° |
| 2026-04-15 14:19 | 51.44323 | 13.03229 | 37243 ft | 495 kts | 152° |
| 2026-04-15 14:19 | 51.38213 | 13.08319 | 37240 ft | 494 kts | 152° |
| 2026-04-15 14:20 | 51.32121 | 13.13379 | 37240 ft | 493 kts | 152° |
| 2026-04-15 14:20 | 51.26024 | 13.18430 | 37237 ft | 493 kts | 152° |
| 2026-04-15 14:21 | 51.19938 | 13.23454 | 37237 ft | 493 kts | 152° |
| 2026-04-15 14:21 | 51.13843 | 13.28472 | 37233 ft | 493 kts | 152° |
| 2026-04-15 14:22 | 51.07746 | 13.33478 | 37234 ft | 493 kts | 152° |
| 2026-04-15 14:22 | 51.01691 | 13.38437 | 37235 ft | 491 kts | 152° |
| 2026-04-15 14:23 | 50.95634 | 13.43382 | 37231 ft | 489 kts | 152° |
| 2026-04-15 14:23 | 50.89576 | 13.48314 | 37232 ft | 489 kts | 152° |
| 2026-04-15 14:24 | 50.83526 | 13.53224 | 37228 ft | 489 kts | 152° |
| 2026-04-15 14:24 | 50.77465 | 13.58130 | 37211 ft | 489 kts | 152° |
| 2026-04-15 14:25 | 50.71355 | 13.62860 | 37209 ft | 489 kts | 161° |
| 2026-04-15 14:25 | 50.64785 | 13.65660 | 37202 ft | 490 kts | 165° |
| 2026-04-15 14:26 | 50.58192 | 13.68417 | 37232 ft | 490 kts | 165° |
| 2026-04-15 14:26 | 50.51598 | 13.71141 | 37215 ft | 490 kts | 165° |
| 2026-04-15 14:27 | 50.45007 | 13.73851 | 37234 ft | 491 kts | 165° |
| 2026-04-15 14:27 | 50.38406 | 13.76559 | 37229 ft | 490 kts | 165° |
| 2026-04-15 14:28 | 50.31804 | 13.79260 | 37232 ft | 490 kts | 165° |
| 2026-04-15 14:28 | 50.25205 | 13.81951 | 37227 ft | 490 kts | 165° |
| 2026-04-15 14:29 | 50.18587 | 13.84643 | 37223 ft | 490 kts | 165° |
| 2026-04-15 14:29 | 50.11993 | 13.87317 | 37237 ft | 488 kts | 165° |
| 2026-04-15 14:30 | 50.05449 | 13.89964 | 37229 ft | 486 kts | 165° |
| 2026-04-15 14:30 | 49.98891 | 13.92609 | 37229 ft | 486 kts | 165° |
| 2026-04-15 14:31 | 49.92347 | 13.95240 | 37232 ft | 486 kts | 165° |
| 2026-04-15 14:31 | 49.85796 | 13.97867 | 37230 ft | 485 kts | 165° |
| 2026-04-15 14:32 | 49.79249 | 14.00486 | 37213 ft | 485 kts | 165° |
| 2026-04-15 14:32 | 49.72717 | 14.03090 | 37225 ft | 486 kts | 165° |
| 2026-04-15 14:33 | 49.66219 | 14.05675 | 37224 ft | 485 kts | 165° |
| 2026-04-15 14:33 | 49.59664 | 14.08274 | 37233 ft | 485 kts | 165° |
| 2026-04-15 14:34 | 49.53140 | 14.10855 | 37214 ft | 485 kts | 165° |
| 2026-04-15 14:34 | 49.46604 | 14.13432 | 37220 ft | 485 kts | 165° |
| 2026-04-15 14:35 | 49.40069 | 14.16002 | 37219 ft | 485 kts | 165° |
| 2026-04-15 14:35 | 49.33531 | 14.18567 | 37212 ft | 485 kts | 165° |
| 2026-04-15 14:36 | 49.26999 | 14.21122 | 37211 ft | 484 kts | 165° |
| 2026-04-15 14:36 | 49.20468 | 14.23669 | 37214 ft | 484 kts | 165° |
| 2026-04-15 14:37 | 49.13936 | 14.26211 | 37215 ft | 484 kts | 165° |
| 2026-04-15 14:37 | 49.07403 | 14.28746 | 37209 ft | 484 kts | 165° |
| 2026-04-15 14:38 | 49.00867 | 14.31276 | 37210 ft | 484 kts | 165° |
| 2026-04-15 14:38 | 48.94315 | 14.33742 | 37212 ft | 484 kts | 166° |
| 2026-04-15 14:39 | 48.87735 | 14.35981 | 37204 ft | 485 kts | 166° |
| 2026-04-15 14:39 | 48.81166 | 14.38240 | 37203 ft | 484 kts | 166° |
| 2026-04-15 14:40 | 48.74592 | 14.40495 | 37202 ft | 484 kts | 166° |
| 2026-04-15 14:40 | 48.68065 | 14.42728 | 37198 ft | 484 kts | 166° |
| 2026-04-15 14:41 | 48.61486 | 14.44974 | 37196 ft | 484 kts | 166° |
| 2026-04-15 14:41 | 48.54915 | 14.47210 | 37187 ft | 482 kts | 166° |
| 2026-04-15 14:42 | 48.48376 | 14.49430 | 37189 ft | 482 kts | 166° |
| 2026-04-15 14:42 | 48.41832 | 14.51645 | 37185 ft | 482 kts | 166° |
| 2026-04-15 14:43 | 48.35284 | 14.53857 | 37179 ft | 481 kts | 166° |
| 2026-04-15 14:43 | 48.28788 | 14.56045 | 37180 ft | 481 kts | 166° |
| 2026-04-15 14:44 | 48.22249 | 14.58240 | 37180 ft | 481 kts | 166° |
| 2026-04-15 14:44 | 48.15710 | 14.60431 | 37183 ft | 481 kts | 166° |
| 2026-04-15 14:45 | 48.10276 | 14.62248 | 37173 ft | 481 kts | 166° |
| 2026-04-15 14:45 | 48.03766 | 14.64418 | 37177 ft | 478 kts | 166° |
| 2026-04-15 14:46 | 47.97280 | 14.66575 | 37180 ft | 477 kts | 166° |
| 2026-04-15 14:46 | 47.90788 | 14.68729 | 37170 ft | 478 kts | 166° |
| 2026-04-15 14:47 | 47.84293 | 14.70878 | 37173 ft | 478 kts | 166° |
| 2026-04-15 14:47 | 47.77803 | 14.73019 | 37182 ft | 478 kts | 166° |
| 2026-04-15 14:48 | 47.71307 | 14.75158 | 37167 ft | 478 kts | 166° |
| 2026-04-15 14:48 | 47.64819 | 14.77288 | 37177 ft | 477 kts | 166° |
| 2026-04-15 14:49 | 47.58337 | 14.79411 | 37178 ft | 476 kts | 166° |
| 2026-04-15 14:49 | 47.51898 | 14.81515 | 37178 ft | 472 kts | 167° |
| 2026-04-15 14:50 | 47.45489 | 14.83602 | 37191 ft | 472 kts | 167° |
| 2026-04-15 14:50 | 47.39123 | 14.85672 | 37192 ft | 471 kts | 167° |
| 2026-04-15 14:51 | 47.32720 | 14.87748 | 37213 ft | 471 kts | 167° |
| 2026-04-15 14:51 | 47.26316 | 14.89819 | 37207 ft | 471 kts | 167° |
| 2026-04-15 14:52 | 47.19915 | 14.91885 | 37211 ft | 470 kts | 167° |
| 2026-04-15 14:52 | 47.13515 | 14.93944 | 37209 ft | 470 kts | 167° |
| 2026-04-15 14:53 | 47.07110 | 14.96001 | 37218 ft | 470 kts | 167° |
| 2026-04-15 14:53 | 47.00782 | 14.98027 | 37192 ft | 468 kts | 167° |
| 2026-04-15 14:54 | 46.94386 | 15.00071 | 37205 ft | 467 kts | 168° |
| 2026-04-15 14:54 | 46.88084 | 15.02079 | 37199 ft | 467 kts | 167° |
| 2026-04-15 14:55 | 46.81726 | 15.04101 | 37194 ft | 467 kts | 167° |
| 2026-04-15 14:55 | 46.75380 | 15.06113 | 37197 ft | 466 kts | 168° |
| 2026-04-15 14:56 | 46.69041 | 15.08119 | 37192 ft | 466 kts | 168° |
| 2026-04-15 14:56 | 46.62701 | 15.10121 | 37198 ft | 466 kts | 168° |
| 2026-04-15 14:57 | 46.56363 | 15.12116 | 37198 ft | 465 kts | 168° |
| 2026-04-15 14:57 | 46.50077 | 15.14091 | 37186 ft | 461 kts | 168° |
| 2026-04-15 14:58 | 46.43803 | 15.16057 | 37183 ft | 461 kts | 168° |
| 2026-04-15 14:58 | 46.37526 | 15.18020 | 37192 ft | 461 kts | 168° |
| 2026-04-15 14:59 | 46.31261 | 15.19974 | 37180 ft | 459 kts | 169° |
| 2026-04-15 14:59 | 46.25021 | 15.21916 | 37186 ft | 459 kts | 169° |
| 2026-04-15 15:00 | 46.18776 | 15.23855 | 37178 ft | 459 kts | 169° |
| 2026-04-15 15:00 | 46.12567 | 15.25778 | 37181 ft | 458 kts | 169° |
| 2026-04-15 15:01 | 46.06344 | 15.27701 | 37179 ft | 457 kts | 169° |
| 2026-04-15 15:01 | 46.00130 | 15.29618 | 37185 ft | 456 kts | 169° |
| 2026-04-15 15:02 | 45.93920 | 15.31528 | 37184 ft | 457 kts | 169° |
| 2026-04-15 15:02 | 45.87706 | 15.33435 | 37181 ft | 456 kts | 169° |
| 2026-04-15 15:03 | 45.81496 | 15.35336 | 37181 ft | 456 kts | 169° |
| 2026-04-15 15:03 | 45.75299 | 15.37230 | 37181 ft | 456 kts | 169° |
| 2026-04-15 15:04 | 45.69096 | 15.39121 | 37172 ft | 456 kts | 169° |
| 2026-04-15 15:04 | 45.62887 | 15.41009 | 37181 ft | 456 kts | 169° |
| 2026-04-15 15:05 | 45.56678 | 15.42893 | 37183 ft | 456 kts | 169° |
| 2026-04-15 15:05 | 45.50470 | 15.44773 | 37181 ft | 456 kts | 169° |
| 2026-04-15 15:06 | 45.41220 | 15.47566 | 37183 ft | 454 kts | 169° |
| 2026-04-15 15:06 | 45.35030 | 15.49429 | 37184 ft | 455 kts | 169° |
| 2026-04-15 15:07 | 45.28838 | 15.51290 | 37184 ft | 455 kts | 169° |
| 2026-04-15 15:07 | 45.22657 | 15.53142 | 37191 ft | 453 kts | 169° |
| 2026-04-15 15:08 | 45.16465 | 15.54994 | 37193 ft | 453 kts | 169° |
| 2026-04-15 15:08 | 45.10308 | 15.56831 | 37189 ft | 450 kts | 169° |
| 2026-04-15 15:09 | 45.04187 | 15.58655 | 37194 ft | 449 kts | 169° |
| 2026-04-15 15:09 | 44.98072 | 15.60471 | 37191 ft | 449 kts | 169° |
| 2026-04-15 15:10 | 44.92008 | 15.62268 | 36863 ft | 441 kts | 169° |
| 2026-04-15 15:10 | 44.89026 | 15.63150 | 36469 ft | 435 kts | 170° |
| 2026-04-15 15:10 | 44.86074 | 15.64023 | 35964 ft | 429 kts | 170° |
| 2026-04-15 15:11 | 44.83174 | 15.64880 | 35231 ft | 424 kts | 170° |
| 2026-04-15 15:11 | 44.80294 | 15.65729 | 34382 ft | 423 kts | 170° |
| 2026-04-15 15:11 | 44.77430 | 15.66574 | 33511 ft | 420 kts | 170° |
| 2026-04-15 15:11 | 44.74570 | 15.67417 | 32649 ft | 416 kts | 170° |
| 2026-04-15 15:12 | 44.71752 | 15.68246 | 31842 ft | 412 kts | 170° |
| 2026-04-15 15:12 | 44.68960 | 15.69067 | 31052 ft | 408 kts | 170° |
| 2026-04-15 15:12 | 44.66198 | 15.69877 | 30276 ft | 404 kts | 169° |
| 2026-04-15 15:12 | 44.63446 | 15.70685 | 29391 ft | 400 kts | 170° |
| 2026-04-15 15:13 | 44.60736 | 15.71478 | 28556 ft | 396 kts | 170° |
| 2026-04-15 15:13 | 44.58057 | 15.72262 | 27741 ft | 392 kts | 169° |
| 2026-04-15 15:13 | 44.55391 | 15.73043 | 26949 ft | 388 kts | 169° |
| 2026-04-15 15:13 | 44.52757 | 15.73812 | 26187 ft | 385 kts | 169° |
| 2026-04-15 15:14 | 44.50150 | 15.74573 | 25430 ft | 381 kts | 170° |
| 2026-04-15 15:14 | 44.47560 | 15.75330 | 24706 ft | 378 kts | 169° |
| 2026-04-15 15:14 | 44.44998 | 15.76077 | 24011 ft | 374 kts | 169° |
| 2026-04-15 15:14 | 44.42492 | 15.76807 | 23241 ft | 371 kts | 169° |
| 2026-04-15 15:15 | 44.39973 | 15.77539 | 22445 ft | 368 kts | 169° |
| 2026-04-15 15:15 | 44.37473 | 15.78267 | 21666 ft | 365 kts | 169° |
| 2026-04-15 15:15 | 44.34995 | 15.78987 | 20887 ft | 363 kts | 169° |
| 2026-04-15 15:15 | 44.32533 | 15.79702 | 20137 ft | 361 kts | 169° |
| 2026-04-15 15:16 | 44.30081 | 15.80414 | 19388 ft | 359 kts | 168° |
| 2026-04-15 15:16 | 44.27641 | 15.81120 | 18665 ft | 358 kts | 168° |
| 2026-04-15 15:16 | 44.25200 | 15.81827 | 17880 ft | 357 kts | 167° |
| 2026-04-15 15:16 | 44.22775 | 15.82527 | 17078 ft | 355 kts | 167° |
| 2026-04-15 15:17 | 44.20360 | 15.83226 | 16372 ft | 351 kts | 167° |
| 2026-04-15 15:17 | 44.18025 | 15.83899 | 16185 ft | 332 kts | 167° |
| 2026-04-15 15:17 | 44.15799 | 15.84374 | 16137 ft | 318 kts | 178° |
| 2026-04-15 15:17 | 44.13593 | 15.84216 | 15821 ft | 318 kts | 184° |
| 2026-04-15 15:18 | 44.11410 | 15.83896 | 15454 ft | 312 kts | 185° |
| 2026-04-15 15:18 | 44.09266 | 15.83580 | 15121 ft | 309 kts | 185° |
| 2026-04-15 15:18 | 44.07157 | 15.83253 | 14796 ft | 307 kts | 185° |
| 2026-04-15 15:18 | 44.05000 | 15.82930 | 14532 ft | 317 kts | 185° |
| 2026-04-15 15:19 | 44.02793 | 15.82607 | 14299 ft | 322 kts | 185° |
| 2026-04-15 15:19 | 44.00559 | 15.82280 | 14065 ft | 323 kts | 185° |
| 2026-04-15 15:19 | 43.98330 | 15.81954 | 13825 ft | 322 kts | 185° |
| 2026-04-15 15:19 | 43.96108 | 15.81629 | 13564 ft | 320 kts | 185° |
| 2026-04-15 15:20 | 43.93897 | 15.81308 | 13287 ft | 319 kts | 185° |
| 2026-04-15 15:20 | 43.91689 | 15.80987 | 12947 ft | 318 kts | 185° |
| 2026-04-15 15:20 | 43.89492 | 15.80669 | 12623 ft | 317 kts | 185° |
| 2026-04-15 15:20 | 43.87296 | 15.80337 | 12294 ft | 316 kts | 185° |
| 2026-04-15 15:21 | 43.85130 | 15.79989 | 11972 ft | 314 kts | 185° |
| 2026-04-15 15:21 | 43.82959 | 15.79642 | 11670 ft | 312 kts | 185° |
| 2026-04-15 15:21 | 43.80809 | 15.79297 | 11330 ft | 310 kts | 185° |
| 2026-04-15 15:21 | 43.78676 | 15.78952 | 11016 ft | 308 kts | 185° |
| 2026-04-15 15:22 | 43.76556 | 15.78609 | 10709 ft | 305 kts | 185° |
| 2026-04-15 15:22 | 43.74450 | 15.78266 | 10408 ft | 304 kts | 185° |
| 2026-04-15 15:22 | 43.72355 | 15.77926 | 10107 ft | 302 kts | 185° |
| 2026-04-15 15:22 | 43.70299 | 15.77592 | 9784 ft | 301 kts | 185° |
| 2026-04-15 15:23 | 43.68225 | 15.77255 | 9446 ft | 300 kts | 185° |
| 2026-04-15 15:23 | 43.66182 | 15.76924 | 9032 ft | 291 kts | 185° |
| 2026-04-15 15:23 | 43.64204 | 15.76603 | 8627 ft | 283 kts | 185° |
| 2026-04-15 15:23 | 43.62270 | 15.76291 | 8224 ft | 275 kts | 185° |
| 2026-04-15 15:24 | 43.60390 | 15.75988 | 7832 ft | 269 kts | 185° |
| 2026-04-15 15:24 | 43.58540 | 15.75764 | 7440 ft | 264 kts | 174° |
| 2026-04-15 15:24 | 43.56820 | 15.76466 | 7180 ft | 258 kts | 147° |
| 2026-04-15 15:24 | 43.55443 | 15.78043 | 7040 ft | 257 kts | 135° |
| 2026-04-15 15:25 | 43.54164 | 15.79775 | 6874 ft | 257 kts | 134° |
| 2026-04-15 15:25 | 43.52895 | 15.81504 | 6690 ft | 257 kts | 134° |
| 2026-04-15 15:25 | 43.51619 | 15.83230 | 6482 ft | 256 kts | 137° |
| 2026-04-15 15:25 | 43.50352 | 15.84939 | 6302 ft | 255 kts | 128° |
| 2026-04-15 15:26 | 43.49343 | 15.86908 | 6107 ft | 249 kts | 123° |
| 2026-04-15 15:26 | 43.48403 | 15.88885 | 5911 ft | 244 kts | 122° |
| 2026-04-15 15:26 | 43.47493 | 15.90796 | 5714 ft | 240 kts | 122° |
| 2026-04-15 15:26 | 43.46584 | 15.92701 | 5511 ft | 236 kts | 122° |
| 2026-04-15 15:27 | 43.45682 | 15.94585 | 5317 ft | 236 kts | 122° |
| 2026-04-15 15:27 | 43.44777 | 15.96474 | 5135 ft | 236 kts | 122° |
| 2026-04-15 15:27 | 43.43924 | 15.98401 | 4942 ft | 236 kts | 119° |
| 2026-04-15 15:27 | 43.43119 | 16.00360 | 4744 ft | 236 kts | 118° |
| 2026-04-15 15:28 | 43.42308 | 16.02327 | 4547 ft | 236 kts | 118° |
| 2026-04-15 15:28 | 43.41495 | 16.04289 | 4352 ft | 236 kts | 118° |
| 2026-04-15 15:28 | 43.40681 | 16.06251 | 4158 ft | 236 kts | 118° |
| 2026-04-15 15:28 | 43.39868 | 16.08208 | 4000 ft | 235 kts | 118° |
| 2026-04-15 15:29 | 43.39061 | 16.10147 | 3991 ft | 235 kts | 118° |
| 2026-04-15 15:29 | 43.38246 | 16.12103 | 3991 ft | 235 kts | 118° |
| 2026-04-15 15:29 | 43.37433 | 16.14055 | 3997 ft | 235 kts | 118° |
| 2026-04-15 15:29 | 43.36617 | 16.16013 | 3993 ft | 235 kts | 118° |
| 2026-04-15 15:30 | 43.35803 | 16.17963 | 3989 ft | 235 kts | 118° |
| 2026-04-15 15:30 | 43.35052 | 16.19951 | 3976 ft | 234 kts | 104° |
| 2026-04-15 15:30 | 43.35115 | 16.22100 | 3950 ft | 226 kts | 65° |
| 2026-04-15 15:30 | 43.36069 | 16.23723 | 3889 ft | 215 kts | 40° |
| 2026-04-15 15:31 | 43.37165 | 16.25012 | 3856 ft | 201 kts | 42° |
| 2026-04-15 15:31 | 43.38188 | 16.26252 | 3757 ft | 191 kts | 42° |
| 2026-04-15 15:31 | 43.39168 | 16.27441 | 3579 ft | 185 kts | 42° |
| 2026-04-15 15:31 | 43.40125 | 16.28601 | 3463 ft | 183 kts | 42° |
| 2026-04-15 15:32 | 43.41077 | 16.29757 | 3377 ft | 182 kts | 42° |
| 2026-04-15 15:32 | 43.41997 | 16.30874 | 3289 ft | 182 kts | 41° |
| 2026-04-15 15:32 | 43.42943 | 16.32023 | 3208 ft | 182 kts | 42° |
| 2026-04-15 15:32 | 43.43890 | 16.33174 | 3103 ft | 182 kts | 41° |
| 2026-04-15 15:33 | 43.44837 | 16.34326 | 2999 ft | 181 kts | 40° |
| 2026-04-15 15:33 | 43.45776 | 16.35472 | 2956 ft | 179 kts | 40° |
| 2026-04-15 15:33 | 43.46697 | 16.36594 | 2802 ft | 175 kts | 41° |
| 2026-04-15 15:33 | 43.47600 | 16.37692 | 2566 ft | 170 kts | 41° |
| 2026-04-15 15:34 | 43.48471 | 16.38744 | 2251 ft | 163 kts | 40° |
| 2026-04-15 15:34 | 43.49061 | 16.39394 | 2044 ft | 167 kts | 30° |
| 2026-04-15 15:34 | 43.50146 | 16.39883 | 2059 ft | 156 kts | 12° |
| 2026-04-15 15:34 | 43.51181 | 16.40162 | 1972 ft | 149 kts | 11° |
| 2026-04-15 15:35 | 43.52198 | 16.40414 | 1727 ft | 147 kts | 6° |
| 2026-04-15 15:35 | 43.53216 | 16.40371 | 1566 ft | 148 kts | 348° |
| 2026-04-15 15:35 | 43.54193 | 16.39915 | 1355 ft | 148 kts | 330° |
| 2026-04-15 15:35 | 43.54999 | 16.39071 | 1294 ft | 146 kts | 309° |
| 2026-04-15 15:36 | 43.55553 | 16.37899 | 1267 ft | 146 kts | 294° |
| 2026-04-15 15:36 | 43.55911 | 16.36598 | 1086 ft | 144 kts | 282° |
| 2026-04-15 15:36 | 43.56036 | 16.35245 | 935 ft | 141 kts | 268° |
| 2026-04-15 15:36 | 43.55908 | 16.33911 | 669 ft | 138 kts | 253° |
| 2026-04-15 15:37 | 43.55488 | 16.32706 | 414 ft | 138 kts | 235° |
| 2026-04-15 15:37 | 43.54916 | 16.31632 | 215 ft | 138 kts | 231° |
| 2026-04-15 15:37 | 43.54338 | 16.30597 | 65 ft | 130 kts | 228° |
| 2026-04-15 15:37 | 43.53940 | 16.29877 | 83 ft | 66 kts | 233° |
| 2026-04-15 15:38 | 43.53758 | 16.29551 | 83 ft | 26 kts | 232° |
| 2026-04-15 15:38 | 43.53700 | 16.29501 | 81 ft | 5 kts | 127° |
| 2026-04-15 15:38 | 43.53692 | 16.29569 | 72 ft | 9 kts | 108° |
| 2026-04-15 15:38 | 43.53694 | 16.29674 | 64 ft | 14 kts | 64° |
| 2026-04-15 15:39 | 43.53732 | 16.29745 | 63 ft | 8 kts | 53° |
| 2026-04-15 15:39 | 43.53741 | 16.29825 | 70 ft | 9 kts | 111° |
| 2026-04-15 15:39 | 43.53729 | 16.29864 | 64 ft | 0 kts | 114° |
| 2026-04-15 15:39 | 43.53728 | 16.29868 | 65 ft | 0 kts | 114° |